Time;durP1;ratioP1;P1;durP2;ratioP2;P2;SDS_P1;SDS_P2;PMS_P1;PMS_P2;Temp;Humidity;BMP_temperature;BMP_pressure;BME280_temperature;BME280_humidity;BME280_pressure;Samples;Min_cycle;Max_cycle;Signal;HPM_P1;HPM_P2
2023/05/26 00:01:06;;;;;;;9.50;2.97;;;;;;;;;;4977586;28;20050;-45
2023/05/26 00:03:34;;;;;;;7.63;2.67;;;;;;;;;;4994690;28;20499;-44
2023/05/26 00:06:03;;;;;;;10.25;3.10;;;;;;;;;;4968727;28;20798;-47
2023/05/26 00:08:33;;;;;;;10.43;2.60;;;;;;;;;;4973927;28;20062;-47
2023/05/26 00:11:01;;;;;;;9.10;2.70;;;;;;;;;;4969934;28;20049;-45
2023/05/26 00:13:29;;;;;;;11.00;2.92;;;;;;;;;;4973505;28;20084;-46
2023/05/26 00:15:59;;;;;;;8.87;2.57;;;;;;;;;;4976144;28;20033;-49
2023/05/26 00:18:27;;;;;;;12.10;2.70;;;;;;;;;;4975101;28;20046;-47
2023/05/26 00:20:55;;;;;;;7.70;2.50;;;;;;;;;;4972679;28;20065;-45
2023/05/26 00:23:24;;;;;;;7.53;2.80;;;;;;;;;;4979698;28;20153;-47
2023/05/26 00:25:52;;;;;;;9.73;2.50;;;;;;;;;;4987789;28;20092;-45
2023/05/26 00:28:19;;;;;;;9.83;3.10;;;;;;;;;;4982667;28;20041;-45
2023/05/26 00:30:49;;;;;;;9.10;2.80;;;;;;;;;;4971447;28;20844;-45
2023/05/26 00:33:18;;;;;;;10.13;3.08;;;;;;;;;;4965586;28;20046;-44
2023/05/26 00:35:45;;;;;;;8.82;2.83;;;;;;;;;;4979900;28;20042;-44
2023/05/26 00:38:15;;;;;;;7.20;3.20;;;;;;;;;;4995661;28;20057;-45
2023/05/26 00:40:43;;;;;;;12.70;2.97;;;;;;;;;;4968587;28;20792;-48
2023/05/26 00:43:10;;;;;;;6.75;2.58;;;;;;;;;;4973091;28;20054;-45
2023/05/26 00:45:39;;;;;;;8.70;2.50;;;;;;;;;;4974280;28;20034;-48
2023/05/26 00:48:07;;;;;;;10.40;2.40;;;;;;;;;;4978387;28;20081;-45
2023/05/26 00:50:36;;;;;;;11.45;3.28;;;;;;;;;;4973476;28;20038;-48
2023/05/26 00:53:05;;;;;;;10.73;2.63;;;;;;;;;;4975427;28;20515;-46
2023/05/26 00:55:33;;;;;;;9.13;2.75;;;;;;;;;;4981596;28;20050;-46
2023/05/26 00:58:01;;;;;;;9.75;2.88;;;;;;;;;;4982614;28;20046;-45
2023/05/26 01:00:30;;;;;;;8.50;2.65;;;;;;;;;;4995447;28;20042;-47
2023/05/26 01:02:58;;;;;;;10.15;2.55;;;;;;;;;;4965524;28;21156;-46
2023/05/26 01:05:31;;;;;;;6.47;2.40;;;;;;;;;;4975514;28;20691;-45
2023/05/26 01:08:02;;;;;;;7.25;2.45;;;;;;;;;;4966106;28;20042;-46
2023/05/26 01:10:31;;;;;;;12.30;2.47;;;;;;;;;;4973463;28;20050;-45
2023/05/26 01:13:01;;;;;;;9.77;2.63;;;;;;;;;;4967388;28;20046;-45
2023/05/26 01:15:31;;;;;;;7.60;2.33;;;;;;;;;;4954741;28;20042;-45
2023/05/26 01:18:03;;;;;;;8.87;2.90;;;;;;;;;;4986868;28;20045;-46
2023/05/26 01:20:32;;;;;;;11.70;2.67;;;;;;;;;;4979411;28;20042;-48
2023/05/26 01:23:21;;;;;;;11.52;2.75;;;;;;;;;;4974138;28;20052;-46
2023/05/26 01:26:01;;;;;;;8.25;2.90;;;;;;;;;;4964745;28;20725;-44
2023/05/26 01:28:32;;;;;;;9.73;2.33;;;;;;;;;;4985436;28;20053;-45
2023/05/26 01:31:01;;;;;;;8.93;2.30;;;;;;;;;;4966684;28;20041;-48
2023/05/26 01:33:29;;;;;;;15.60;3.83;;;;;;;;;;4980610;28;20034;-49
2023/05/26 01:35:56;;;;;;;10.18;2.70;;;;;;;;;;4971303;28;20104;-49
2023/05/26 01:38:28;;;;;;;10.63;2.95;;;;;;;;;;4987969;28;20046;-45
2023/05/26 01:41:00;;;;;;;11.02;2.05;;;;;;;;;;4980628;28;20120;-45
2023/05/26 01:43:31;;;;;;;9.27;2.83;;;;;;;;;;4977946;28;20053;-44
2023/05/26 01:46:06;;;;;;;6.90;2.13;;;;;;;;;;4972216;28;20035;-46
2023/05/26 01:48:37;;;;;;;7.63;3.03;;;;;;;;;;4975816;28;20980;-48
2023/05/26 01:51:06;;;;;;;10.80;1.83;;;;;;;;;;4978530;28;20062;-44
2023/05/26 01:53:36;;;;;;;7.47;2.70;;;;;;;;;;4977893;28;20518;-48
2023/05/26 01:56:06;;;;;;;9.47;2.23;;;;;;;;;;4978815;28;20050;-45
2023/05/26 01:58:35;;;;;;;6.53;2.15;;;;;;;;;;4975019;28;20524;-45
2023/05/26 02:01:05;;;;;;;9.80;2.55;;;;;;;;;;4961922;28;20048;-45
2023/05/26 02:03:35;;;;;;;8.65;2.55;;;;;;;;;;4974435;28;20141;-45
2023/05/26 02:06:03;;;;;;;7.00;1.95;;;;;;;;;;4966676;28;20789;-44
2023/05/26 02:08:31;;;;;;;10.70;2.23;;;;;;;;;;4978549;28;20105;-46
2023/05/26 02:11:00;;;;;;;8.75;2.13;;;;;;;;;;4967995;28;20045;-45
2023/05/26 02:13:28;;;;;;;6.88;3.00;;;;;;;;;;4986107;28;20496;-45
2023/05/26 02:15:55;;;;;;;11.98;2.63;;;;;;;;;;4975318;28;20442;-47
2023/05/26 02:18:26;;;;;;;11.65;2.85;;;;;;;;;;4933325;28;20039;-44
2023/05/26 02:20:54;;;;;;;10.00;2.63;;;;;;;;;;4958868;28;20047;-45
2023/05/26 02:23:21;;;;;;;11.43;2.67;;;;;;;;;;4941335;28;20046;-44
2023/05/26 02:25:51;;;;;;;8.93;2.78;;;;;;;;;;4933322;28;20039;-46
2023/05/26 02:28:20;;;;;;;9.23;2.75;;;;;;;;;;4945895;28;20040;-45
2023/05/26 02:30:48;;;;;;;12.82;2.63;;;;;;;;;;4901076;28;20098;-47
2023/05/26 02:33:17;;;;;;;9.63;2.90;;;;;;;;;;4939600;28;20039;-46
2023/05/26 02:35:46;;;;;;;7.50;2.45;;;;;;;;;;4941069;28;20046;-48
2023/05/26 02:38:14;;;;;;;7.72;1.85;;;;;;;;;;4938733;28;20097;-46
2023/05/26 02:40:43;;;;;;;7.45;1.70;;;;;;;;;;4925053;28;20039;-46
2023/05/26 02:43:11;;;;;;;10.05;2.00;;;;;;;;;;4932483;28;20490;-46
2023/05/26 02:45:38;;;;;;;13.80;2.27;;;;;;;;;;4938139;28;20115;-46
2023/05/26 02:48:08;;;;;;;9.45;2.05;;;;;;;;;;4941154;28;20130;-46
2023/05/26 02:50:36;;;;;;;14.02;2.20;;;;;;;;;;4930888;28;20664;-45
2023/05/26 02:53:05;;;;;;;10.13;1.95;;;;;;;;;;4936082;28;20058;-44
2023/05/26 02:55:34;;;;;;;9.80;1.77;;;;;;;;;;4942814;28;20600;-46
2023/05/26 02:58:02;;;;;;;14.10;2.13;;;;;;;;;;4941215;28;20673;-47
2023/05/26 03:00:30;;;;;;;10.80;2.03;;;;;;;;;;4947264;28;20043;-45
2023/05/26 03:03:00;;;;;;;6.32;1.50;;;;;;;;;;4924754;28;20769;-45
2023/05/26 03:05:28;;;;;;;9.90;1.35;;;;;;;;;;4941228;28;20094;-47
2023/05/26 03:07:56;;;;;;;7.25;1.17;;;;;;;;;;4923198;28;20497;-48
2023/05/26 03:10:26;;;;;;;11.83;1.73;;;;;;;;;;4940134;28;20054;-45
2023/05/26 03:12:53;;;;;;;7.03;1.48;;;;;;;;;;4941259;28;20046;-48
2023/05/26 03:15:22;;;;;;;9.65;1.80;;;;;;;;;;4918999;28;20039;-46
2023/05/26 03:17:51;;;;;;;6.85;1.52;;;;;;;;;;4932272;28;20043;-43
2023/05/26 03:20:19;;;;;;;8.65;1.90;;;;;;;;;;4930077;28;20055;-48
2023/05/26 03:22:47;;;;;;;7.90;1.40;;;;;;;;;;4959494;28;20043;-47
2023/05/26 03:25:20;;;;;;;12.40;2.35;;;;;;;;;;4962125;28;20046;-44
2023/05/26 03:27:49;;;;;;;10.60;2.25;;;;;;;;;;4972232;28;20050;-46
2023/05/26 03:30:17;;;;;;;8.55;1.52;;;;;;;;;;4953333;28;20042;-46
2023/05/26 03:32:45;;;;;;;8.90;2.05;;;;;;;;;;4960592;28;20043;-45
2023/05/26 03:35:14;;;;;;;8.50;1.47;;;;;;;;;;4941633;28;20047;-47
2023/05/26 03:37:42;;;;;;;7.88;1.60;;;;;;;;;;4956631;28;20046;-47
2023/05/26 03:40:10;;;;;;;7.97;1.50;;;;;;;;;;4973396;28;20057;-46
2023/05/26 03:42:39;;;;;;;12.95;1.63;;;;;;;;;;4971612;28;20042;-46
2023/05/26 03:45:09;;;;;;;13.90;1.88;;;;;;;;;;4949096;28;20672;-44
2023/05/26 03:47:37;;;;;;;9.37;1.93;;;;;;;;;;4958718;28;20046;-46
2023/05/26 03:50:06;;;;;;;9.20;1.65;;;;;;;;;;4940519;28;20043;-46
2023/05/26 03:52:35;;;;;;;9.57;1.75;;;;;;;;;;4952293;28;20060;-45
2023/05/26 03:55:03;;;;;;;6.45;1.83;;;;;;;;;;4946554;28;20468;-46
2023/05/26 03:57:31;;;;;;;17.50;2.22;;;;;;;;;;4956544;28;20553;-46
2023/05/26 03:59:59;;;;;;;7.90;1.83;;;;;;;;;;4969559;28;20034;-47
2023/05/26 04:02:30;;;;;;;10.50;1.95;;;;;;;;;;4964583;28;20056;-46
2023/05/26 04:04:58;;;;;;;10.23;2.00;;;;;;;;;;4958761;28;20570;-45
2023/05/26 04:07:26;;;;;;;8.75;1.73;;;;;;;;;;4942970;28;20046;-45
2023/05/26 04:09:53;;;;;;;10.30;1.92;;;;;;;;;;4967541;28;20444;-45
2023/05/26 04:12:22;;;;;;;9.47;1.67;;;;;;;;;;4948097;28;20707;-46
2023/05/26 04:14:50;;;;;;;9.90;1.65;;;;;;;;;;4968610;28;20042;-45
2023/05/26 04:17:24;;;;;;;12.20;1.90;;;;;;;;;;4964663;28;20053;-45
2023/05/26 04:19:53;;;;;;;8.70;1.83;;;;;;;;;;4953018;28;20066;-46
2023/05/26 04:22:22;;;;;;;9.55;1.70;;;;;;;;;;4967626;28;20050;-46
2023/05/26 04:24:50;;;;;;;8.17;1.83;;;;;;;;;;4987964;28;20053;-45
2023/05/26 04:27:18;;;;;;;14.77;2.15;;;;;;;;;;4981189;28;20039;-47
2023/05/26 04:29:45;;;;;;;13.18;2.10;;;;;;;;;;4967180;28;20042;-45
2023/05/26 04:32:15;;;;;;;7.97;1.48;;;;;;;;;;4981511;28;20658;-48
2023/05/26 04:34:55;;;;;;;17.83;1.80;;;;;;;;;;4980401;28;20145;-46
2023/05/26 04:37:23;;;;;;;15.90;1.43;;;;;;;;;;4977108;28;20058;-46
2023/05/26 04:39:51;;;;;;;13.40;1.80;;;;;;;;;;4977135;28;20057;-45
2023/05/26 04:42:20;;;;;;;11.38;1.48;;;;;;;;;;4967739;28;20076;-44
2023/05/26 04:44:49;;;;;;;8.90;1.30;;;;;;;;;;4965173;28;20065;-44
2023/05/26 04:47:17;;;;;;;13.00;1.73;;;;;;;;;;4972939;28;20101;-45
2023/05/26 04:49:45;;;;;;;9.87;2.17;;;;;;;;;;4963822;28;20042;-45
2023/05/26 04:52:15;;;;;;;10.50;1.92;;;;;;;;;;4988070;28;20128;-45
2023/05/26 04:54:43;;;;;;;10.73;1.17;;;;;;;;;;4966918;28;21606;-47
2023/05/26 04:57:11;;;;;;;12.80;1.45;;;;;;;;;;4971191;28;20097;-45
2023/05/26 04:59:40;;;;;;;10.68;1.67;;;;;;;;;;4968933;28;20096;-46
2023/05/26 05:02:08;;;;;;;14.97;1.70;;;;;;;;;;4976777;28;20100;-45
2023/05/26 05:04:36;;;;;;;12.63;1.65;;;;;;;;;;4970703;28;20046;-47
2023/05/26 05:07:05;;;;;;;14.00;1.70;;;;;;;;;;4975596;28;20555;-46
2023/05/26 05:09:34;;;;;;;11.25;1.27;;;;;;;;;;4964889;28;20057;-45
2023/05/26 05:12:05;;;;;;;12.20;1.60;;;;;;;;;;4973287;28;20053;-46
2023/05/26 05:14:33;;;;;;;11.57;1.80;;;;;;;;;;4974155;28;20161;-48
2023/05/26 05:17:01;;;;;;;17.77;1.88;;;;;;;;;;4981459;28;20551;-45
2023/05/26 05:19:29;;;;;;;12.30;2.25;;;;;;;;;;4971299;28;20045;-45
2023/05/26 05:21:58;;;;;;;9.65;1.70;;;;;;;;;;4980636;28;20065;-45
2023/05/26 05:24:25;;;;;;;10.52;1.63;;;;;;;;;;4971008;28;20038;-45
2023/05/26 05:26:55;;;;;;;11.53;2.00;;;;;;;;;;4975936;28;20512;-45
2023/05/26 05:29:24;;;;;;;12.30;1.80;;;;;;;;;;4973922;28;20043;-46
2023/05/26 05:31:51;;;;;;;13.30;2.10;;;;;;;;;;4967105;28;20041;-48
2023/05/26 05:34:20;;;;;;;14.02;2.20;;;;;;;;;;4984091;28;20156;-47
2023/05/26 05:36:48;;;;;;;9.70;1.90;;;;;;;;;;4968032;28;20060;-46
2023/05/26 05:39:16;;;;;;;13.37;1.60;;;;;;;;;;4982862;28;20120;-45
2023/05/26 05:41:44;;;;;;;10.20;1.58;;;;;;;;;;4964162;28;20046;-45
2023/05/26 05:44:13;;;;;;;10.80;1.65;;;;;;;;;;4976771;28;20050;-46
2023/05/26 05:46:41;;;;;;;10.10;1.80;;;;;;;;;;4970065;28;20049;-45
2023/05/26 05:49:09;;;;;;;11.38;2.05;;;;;;;;;;4976414;28;20125;-46
2023/05/26 05:51:38;;;;;;;12.67;1.60;;;;;;;;;;4965474;28;20038;-46
2023/05/26 05:54:06;;;;;;;14.07;1.45;;;;;;;;;;4971662;28;20076;-45
2023/05/26 05:56:34;;;;;;;12.40;2.10;;;;;;;;;;4975511;28;20096;-46
2023/05/26 05:59:02;;;;;;;11.70;1.67;;;;;;;;;;4978130;28;20097;-45
2023/05/26 06:01:31;;;;;;;8.35;1.33;;;;;;;;;;4971823;28;20042;-45
2023/05/26 06:03:59;;;;;;;14.17;1.63;;;;;;;;;;4977561;28;20050;-47
2023/05/26 06:06:27;;;;;;;11.02;1.38;;;;;;;;;;4962264;28;20129;-46
2023/05/26 06:08:56;;;;;;;12.60;1.52;;;;;;;;;;4965770;28;20046;-47
2023/05/26 06:11:25;;;;;;;12.68;1.50;;;;;;;;;;4979400;28;20046;-46
2023/05/26 06:13:54;;;;;;;10.93;1.30;;;;;;;;;;4964313;28;20049;-45
2023/05/26 06:16:21;;;;;;;16.40;2.10;;;;;;;;;;4978423;28;20045;-46
2023/05/26 06:18:51;;;;;;;12.13;1.60;;;;;;;;;;4977098;28;20612;-49
2023/05/26 06:21:22;;;;;;;13.85;1.30;;;;;;;;;;4980200;28;20045;-50
2023/05/26 06:23:52;;;;;;;13.80;1.10;;;;;;;;;;4981695;28;20052;-48
2023/05/26 06:26:21;;;;;;;15.65;1.25;;;;;;;;;;4970037;28;20046;-45
2023/05/26 06:28:48;;;;;;;15.67;1.80;;;;;;;;;;4981515;28;20065;-44
2023/05/26 06:31:18;;;;;;;13.38;1.35;;;;;;;;;;4959028;28;20050;-45
2023/05/26 06:33:47;;;;;;;14.55;1.55;;;;;;;;;;4974273;28;20065;-45
2023/05/26 06:36:16;;;;;;;14.52;1.33;;;;;;;;;;4970722;28;20062;-46
2023/05/26 06:38:44;;;;;;;21.98;2.60;;;;;;;;;;4982911;28;20384;-48
2023/05/26 06:41:13;;;;;;;15.93;1.70;;;;;;;;;;4974157;28;20050;-48
2023/05/26 06:43:41;;;;;;;14.93;1.52;;;;;;;;;;4964504;28;20042;-46
2023/05/26 06:46:08;;;;;;;11.73;1.58;;;;;;;;;;4969259;28;20057;-48
2023/05/26 06:48:38;;;;;;;15.23;1.30;;;;;;;;;;4971437;28;20689;-47
2023/05/26 06:51:05;;;;;;;10.43;1.60;;;;;;;;;;4988128;28;20049;-45
2023/05/26 06:53:34;;;;;;;14.63;1.53;;;;;;;;;;4965339;28;20056;-48
2023/05/26 06:56:04;;;;;;;9.02;1.50;;;;;;;;;;4972912;28;20046;-45
2023/05/26 06:58:32;;;;;;;13.65;1.55;;;;;;;;;;4973880;28;20043;-46
2023/05/26 07:01:00;;;;;;;9.60;1.27;;;;;;;;;;4963435;28;20050;-48
2023/05/26 07:03:29;;;;;;;12.95;1.38;;;;;;;;;;4987168;28;20034;-48
2023/05/26 07:05:58;;;;;;;10.37;1.37;;;;;;;;;;4963336;28;20289;-46
2023/05/26 07:08:25;;;;;;;14.00;1.35;;;;;;;;;;4981890;28;20069;-46
2023/05/26 07:10:55;;;;;;;10.88;1.38;;;;;;;;;;4965688;28;20031;-46
2023/05/26 07:13:23;;;;;;;13.18;1.55;;;;;;;;;;4954857;28;20066;-44
2023/05/26 07:15:51;;;;;;;12.85;1.88;;;;;;;;;;4965870;28;20050;-45
2023/05/26 07:18:19;;;;;;;13.03;1.40;;;;;;;;;;4979349;28;20045;-47
2023/05/26 07:20:48;;;;;;;11.93;1.63;;;;;;;;;;4972301;28;20051;-47
2023/05/26 07:23:16;;;;;;;16.17;1.60;;;;;;;;;;4979148;28;20064;-46
2023/05/26 07:25:45;;;;;;;14.75;1.77;;;;;;;;;;4973787;28;20038;-46
2023/05/26 07:28:14;;;;;;;13.95;1.65;;;;;;;;;;4979771;28;20050;-52
2023/05/26 07:30:42;;;;;;;9.77;1.50;;;;;;;;;;4984548;28;20046;-45
2023/05/26 07:33:11;;;;;;;13.18;2.10;;;;;;;;;;4979239;28;20055;-48
2023/05/26 07:35:39;;;;;;;8.65;1.50;;;;;;;;;;4976412;28;20049;-47
2023/05/26 07:38:07;;;;;;;10.60;2.22;;;;;;;;;;4978982;28;20046;-45
2023/05/26 07:40:35;;;;;;;10.10;1.77;;;;;;;;;;4973779;28;20385;-45
2023/05/26 07:43:03;;;;;;;17.37;1.50;;;;;;;;;;4977241;28;20050;-45
2023/05/26 07:45:32;;;;;;;9.68;1.50;;;;;;;;;;4974687;28;20038;-45
2023/05/26 07:48:01;;;;;;;10.00;1.77;;;;;;;;;;4975094;28;20033;-45
2023/05/26 07:50:29;;;;;;;15.75;1.40;;;;;;;;;;4979847;28;20491;-45
2023/05/26 07:52:58;;;;;;;7.68;1.63;;;;;;;;;;4981975;28;20046;-48
2023/05/26 07:55:27;;;;;;;10.47;1.70;;;;;;;;;;4978055;28;20038;-46
2023/05/26 07:57:55;;;;;;;10.02;1.85;;;;;;;;;;4971103;28;20042;-48
2023/05/26 08:00:22;;;;;;;12.73;1.55;;;;;;;;;;4975525;28;20038;-46
2023/05/26 08:02:54;;;;;;;10.43;1.33;;;;;;;;;;4985550;28;20077;-49
2023/05/26 08:05:24;;;;;;;12.30;1.20;;;;;;;;;;4967240;28;21918;-45
2023/05/26 08:07:52;;;;;;;15.47;1.73;;;;;;;;;;4974106;28;20080;-45
2023/05/26 08:10:20;;;;;;;11.70;2.00;;;;;;;;;;4983612;28;20045;-45
2023/05/26 08:12:48;;;;;;;9.75;1.73;;;;;;;;;;4977098;28;20062;-46
2023/05/26 08:15:16;;;;;;;11.93;1.60;;;;;;;;;;4980939;28;20046;-46
2023/05/26 08:17:47;;;;;;;9.00;1.45;;;;;;;;;;4965754;28;20042;-48
2023/05/26 08:20:16;;;;;;;13.03;1.87;;;;;;;;;;4978291;28;20101;-45
2023/05/26 08:22:45;;;;;;;6.05;1.40;;;;;;;;;;4972981;28;20051;-49
2023/05/26 08:25:14;;;;;;;10.73;1.60;;;;;;;;;;4991514;28;20052;-47
2023/05/26 08:27:42;;;;;;;15.10;1.30;;;;;;;;;;4986145;28;20085;-48
2023/05/26 08:30:11;;;;;;;12.50;1.88;;;;;;;;;;4951196;28;20211;-46
2023/05/26 08:32:39;;;;;;;14.30;1.80;;;;;;;;;;4974338;28;20050;-47
2023/05/26 08:35:07;;;;;;;10.43;1.58;;;;;;;;;;4971008;28;20049;-45
2023/05/26 08:37:36;;;;;;;11.15;1.60;;;;;;;;;;4986321;28;20038;-47
2023/05/26 08:40:06;;;;;;;15.13;1.40;;;;;;;;;;4964110;28;20640;-46
2023/05/26 08:42:34;;;;;;;10.40;1.60;;;;;;;;;;4987245;28;20471;-46
2023/05/26 08:45:03;;;;;;;12.00;1.70;;;;;;;;;;4965446;28;20050;-46
2023/05/26 08:47:32;;;;;;;8.88;1.48;;;;;;;;;;4978561;28;20147;-47
2023/05/26 08:50:02;;;;;;;12.77;1.60;;;;;;;;;;4966833;28;20655;-48
2023/05/26 08:52:31;;;;;;;9.30;1.20;;;;;;;;;;4979729;28;20053;-46
2023/05/26 08:55:01;;;;;;;17.02;1.98;;;;;;;;;;4977838;28;20041;-49
2023/05/26 08:57:30;;;;;;;10.83;1.43;;;;;;;;;;4976211;28;20600;-45
2023/05/26 08:59:58;;;;;;;8.75;1.83;;;;;;;;;;4967619;28;20038;-46
2023/05/26 09:02:27;;;;;;;7.20;1.23;;;;;;;;;;4972850;28;20547;-45
2023/05/26 09:04:55;;;;;;;9.70;1.63;;;;;;;;;;4971292;28;20787;-45
2023/05/26 09:07:23;;;;;;;7.13;1.08;;;;;;;;;;4976376;28;20046;-46
2023/05/26 09:09:56;;;;;;;7.47;1.33;;;;;;;;;;4985918;28;20049;-47
2023/05/26 09:12:30;;;;;;;13.63;1.30;;;;;;;;;;4977096;28;20629;-47
2023/05/26 09:14:58;;;;;;;5.45;1.05;;;;;;;;;;4985930;28;20044;-45
2023/05/26 09:17:33;;;;;;;13.00;1.50;;;;;;;;;;4968677;28;20767;-47
2023/05/26 09:20:01;;;;;;;9.70;1.30;;;;;;;;;;4975334;28;20042;-45
2023/05/26 09:22:32;;;;;;;7.80;1.40;;;;;;;;;;4962907;28;20392;-47
2023/05/26 09:25:00;;;;;;;10.57;1.67;;;;;;;;;;4973929;28;20066;-45
2023/05/26 09:27:30;;;;;;;8.20;1.10;;;;;;;;;;4977070;28;20478;-47
2023/05/26 09:30:00;;;;;;;10.63;2.00;;;;;;;;;;4965309;28;21138;-45
2023/05/26 09:32:28;;;;;;;9.00;1.48;;;;;;;;;;4974978;28;20143;-46
2023/05/26 09:34:56;;;;;;;12.20;1.83;;;;;;;;;;4975455;28;20048;-46
2023/05/26 09:37:29;;;;;;;8.82;1.40;;;;;;;;;;4973536;28;20041;-47
2023/05/26 09:39:57;;;;;;;9.70;1.27;;;;;;;;;;4980973;28;20042;-46
2023/05/26 09:42:26;;;;;;;8.27;1.30;;;;;;;;;;4971501;28;20053;-46
2023/05/26 09:44:56;;;;;;;6.85;1.27;;;;;;;;;;4967526;28;20061;-45
2023/05/26 09:47:24;;;;;;;6.90;1.00;;;;;;;;;;4959157;28;20045;-46
2023/05/26 09:50:02;;;;;;;10.57;1.40;;;;;;;;;;4961544;28;20379;-45
2023/05/26 09:52:31;;;;;;;4.97;1.00;;;;;;;;;;4965497;28;20577;-45
2023/05/26 09:55:01;;;;;;;8.18;1.20;;;;;;;;;;4978419;28;20570;-48
2023/05/26 09:57:29;;;;;;;6.90;1.00;;;;;;;;;;4981337;28;20590;-46
2023/05/26 09:59:58;;;;;;;7.87;1.53;;;;;;;;;;4973464;28;20034;-45
2023/05/26 10:02:29;;;;;;;6.82;1.35;;;;;;;;;;4981526;28;20038;-45
2023/05/26 10:04:58;;;;;;;7.15;1.20;;;;;;;;;;4976463;28;20035;-47
2023/05/26 10:07:27;;;;;;;7.78;1.33;;;;;;;;;;4964375;28;20133;-46
2023/05/26 10:09:58;;;;;;;9.02;1.10;;;;;;;;;;4974802;28;20603;-48
2023/05/26 10:12:26;;;;;;;7.43;1.43;;;;;;;;;;4967671;28;20531;-45
2023/05/26 10:14:55;;;;;;;6.18;1.20;;;;;;;;;;4971516;28;20041;-45
2023/05/26 10:17:26;;;;;;;8.90;0.90;;;;;;;;;;4970381;28;20053;-47
2023/05/26 10:19:55;;;;;;;7.38;1.30;;;;;;;;;;4979487;28;20492;-44
2023/05/26 10:22:28;;;;;;;3.83;0.95;;;;;;;;;;4971131;28;20061;-46
2023/05/26 10:24:58;;;;;;;4.03;1.03;;;;;;;;;;4984715;28;20038;-44
2023/05/26 10:27:29;;;;;;;9.43;1.20;;;;;;;;;;4967241;28;20035;-46
2023/05/26 10:30:01;;;;;;;5.07;1.02;;;;;;;;;;4977618;28;22238;-46
2023/05/26 10:32:49;;;;;;;8.63;1.40;;;;;;;;;;4970548;28;20050;-48
2023/05/26 10:35:22;;;;;;;6.47;1.15;;;;;;;;;;4968839;28;20046;-45
2023/05/26 10:37:51;;;;;;;6.87;1.20;;;;;;;;;;4980035;28;20052;-48
2023/05/26 10:40:27;;;;;;;5.85;1.00;;;;;;;;;;4968976;28;20609;-47
2023/05/26 10:42:57;;;;;;;6.45;1.30;;;;;;;;;;4967650;28;20046;-45
2023/05/26 10:45:26;;;;;;;11.13;1.63;;;;;;;;;;4969099;28;20038;-50
2023/05/26 10:48:01;;;;;;;9.23;1.25;;;;;;;;;;4983913;28;20092;-45
2023/05/26 10:51:00;;;;;;;9.03;1.50;;;;;;;;;;4970131;28;20125;-46
2023/05/26 10:53:30;;;;;;;7.78;1.23;;;;;;;;;;4961944;28;20130;-46
2023/05/26 10:56:02;;;;;;;8.65;1.35;;;;;;;;;;4986771;28;20056;-48
2023/05/26 10:58:32;;;;;;;5.38;1.00;;;;;;;;;;4960008;28;20050;-47
2023/05/26 11:01:01;;;;;;;8.30;1.40;;;;;;;;;;4975484;28;20060;-45
2023/05/26 11:03:35;;;;;;;6.20;1.10;;;;;;;;;;4977206;28;20046;-45
2023/05/26 11:06:04;;;;;;;6.93;1.40;;;;;;;;;;4968177;28;20084;-46
2023/05/26 11:08:34;;;;;;;7.15;1.30;;;;;;;;;;4974703;28;20038;-48
2023/05/26 11:11:03;;;;;;;6.47;1.65;;;;;;;;;;4980824;28;20104;-45
2023/05/26 11:13:42;;;;;;;9.85;1.80;;;;;;;;;;4980860;28;20137;-45
2023/05/26 11:16:13;;;;;;;9.40;1.30;;;;;;;;;;4988354;28;20053;-44
2023/05/26 11:18:46;;;;;;;6.78;1.45;;;;;;;;;;4973471;28;20038;-46
2023/05/26 11:21:15;;;;;;;8.35;1.20;;;;;;;;;;4980337;28;20065;-45
2023/05/26 11:23:44;;;;;;;5.88;0.80;;;;;;;;;;4981351;28;20519;-45
2023/05/26 11:26:12;;;;;;;8.43;1.45;;;;;;;;;;4973294;28;20042;-46
2023/05/26 11:28:44;;;;;;;9.07;1.40;;;;;;;;;;4977414;28;20041;-48
2023/05/26 11:31:15;;;;;;;6.88;1.00;;;;;;;;;;4966505;28;20511;-45
2023/05/26 11:33:46;;;;;;;5.13;1.30;;;;;;;;;;4978567;28;20039;-45
2023/05/26 11:36:16;;;;;;;6.18;0.88;;;;;;;;;;4968975;28;20054;-45
2023/05/26 11:38:44;;;;;;;6.88;1.35;;;;;;;;;;4988972;28;20265;-46
2023/05/26 11:41:15;;;;;;;8.07;1.50;;;;;;;;;;4976153;28;20038;-48
2023/05/26 11:43:45;;;;;;;6.93;1.17;;;;;;;;;;4970476;28;20500;-47
2023/05/26 11:46:14;;;;;;;7.10;0.85;;;;;;;;;;4978018;28;20050;-49
2023/05/26 11:48:43;;;;;;;5.28;1.27;;;;;;;;;;4973483;28;20045;-46
2023/05/26 11:51:17;;;;;;;5.97;0.98;;;;;;;;;;4986255;28;20170;-47
2023/05/26 11:53:45;;;;;;;7.33;1.20;;;;;;;;;;4980905;28;20519;-44
2023/05/26 11:56:16;;;;;;;8.18;1.50;;;;;;;;;;4960960;28;20034;-46
2023/05/26 11:58:46;;;;;;;6.50;1.05;;;;;;;;;;4982966;28;20048;-46
2023/05/26 12:01:14;;;;;;;6.72;1.42;;;;;;;;;;4972725;28;20045;-46
2023/05/26 12:03:44;;;;;;;8.00;1.52;;;;;;;;;;4978146;28;20046;-49
2023/05/26 12:06:17;;;;;;;8.27;1.50;;;;;;;;;;4966650;28;20436;-47
2023/05/26 12:08:50;;;;;;;5.30;1.30;;;;;;;;;;4976589;28;20042;-46
2023/05/26 12:11:20;;;;;;;6.97;1.20;;;;;;;;;;4979982;28;20042;-47
2023/05/26 12:13:50;;;;;;;8.13;1.77;;;;;;;;;;4977954;28;20129;-45
2023/05/26 12:16:19;;;;;;;7.38;1.23;;;;;;;;;;4983291;28;20046;-46
2023/05/26 12:18:46;;;;;;;6.97;1.30;;;;;;;;;;4973889;28;20116;-47
2023/05/26 12:21:17;;;;;;;6.25;1.40;;;;;;;;;;4978574;28;20057;-45
2023/05/26 12:23:46;;;;;;;6.25;1.17;;;;;;;;;;4981351;28;20038;-46
2023/05/26 12:26:14;;;;;;;6.88;1.77;;;;;;;;;;4974320;28;20054;-45
2023/05/26 12:28:43;;;;;;;6.45;1.35;;;;;;;;;;4971295;28;20041;-49
2023/05/26 12:31:11;;;;;;;4.80;1.00;;;;;;;;;;4986579;28;20042;-45
2023/05/26 12:33:39;;;;;;;5.78;1.20;;;;;;;;;;4967023;28;20116;-50
2023/05/26 12:36:10;;;;;;;4.18;1.05;;;;;;;;;;4968661;28;20097;-45
2023/05/26 12:38:43;;;;;;;6.18;1.30;;;;;;;;;;4958763;28;20030;-47
2023/05/26 12:41:11;;;;;;;7.55;1.48;;;;;;;;;;4979650;28;20481;-46
2023/05/26 12:43:39;;;;;;;8.10;1.63;;;;;;;;;;4967636;28;20451;-45
2023/05/26 12:46:07;;;;;;;7.97;1.25;;;;;;;;;;4975683;28;20042;-46
2023/05/26 12:48:35;;;;;;;9.63;1.48;;;;;;;;;;4966236;28;20045;-46
2023/05/26 12:51:03;;;;;;;6.38;1.48;;;;;;;;;;4974643;28;20043;-45
2023/05/26 12:53:30;;;;;;;5.65;1.23;;;;;;;;;;4966491;28;20042;-45
2023/05/26 12:56:04;;;;;;;4.30;1.03;;;;;;;;;;4972957;28;20112;-48
2023/05/26 12:58:32;;;;;;;7.63;1.17;;;;;;;;;;4974129;28;20049;-48
2023/05/26 13:01:00;;;;;;;6.50;1.50;;;;;;;;;;4972934;28;20053;-47
2023/05/26 13:03:28;;;;;;;6.07;1.45;;;;;;;;;;4984604;28;20038;-45
2023/05/26 13:05:56;;;;;;;6.43;1.30;;;;;;;;;;4974860;28;20050;-46
2023/05/26 13:08:25;;;;;;;8.70;1.47;;;;;;;;;;4973099;28;20070;-48
2023/05/26 13:10:52;;;;;;;4.90;1.42;;;;;;;;;;4980442;28;20109;-46
2023/05/26 13:13:21;;;;;;;7.22;1.58;;;;;;;;;;4975951;28;20127;-47
2023/05/26 13:15:51;;;;;;;4.57;1.05;;;;;;;;;;4941926;28;20528;-47
2023/05/26 13:18:18;;;;;;;7.13;1.50;;;;;;;;;;4983214;28;20398;-49
2023/05/26 13:20:46;;;;;;;10.93;1.40;;;;;;;;;;4979394;28;20073;-47
2023/05/26 13:23:16;;;;;;;9.73;1.38;;;;;;;;;;4981063;28;20156;-44
2023/05/26 13:25:43;;;;;;;6.15;1.52;;;;;;;;;;4980673;28;20116;-45
2023/05/26 13:28:11;;;;;;;6.43;1.30;;;;;;;;;;4975712;28;20050;-48
2023/05/26 13:30:41;;;;;;;8.73;1.40;;;;;;;;;;4974174;28;20054;-47
2023/05/26 13:33:08;;;;;;;5.20;1.53;;;;;;;;;;4969754;28;20042;-48
2023/05/26 13:35:36;;;;;;;6.28;1.23;;;;;;;;;;4972968;28;20046;-46
2023/05/26 13:38:05;;;;;;;5.47;1.15;;;;;;;;;;4979869;28;20055;-46
2023/05/26 13:40:32;;;;;;;6.50;1.27;;;;;;;;;;4967798;28;20065;-46
2023/05/26 13:43:00;;;;;;;8.65;1.10;;;;;;;;;;4982127;28;20100;-46
2023/05/26 13:45:29;;;;;;;4.90;1.73;;;;;;;;;;4970583;28;20041;-46
2023/05/26 13:48:01;;;;;;;4.55;0.90;;;;;;;;;;4983799;28;20053;-47
2023/05/26 13:50:30;;;;;;;5.22;1.50;;;;;;;;;;4967321;28;20035;-49
2023/05/26 13:52:58;;;;;;;7.70;1.35;;;;;;;;;;4980803;28;20049;-49
2023/05/26 13:55:25;;;;;;;6.72;1.35;;;;;;;;;;4949818;28;20038;-48
2023/05/26 13:57:54;;;;;;;5.43;1.57;;;;;;;;;;4985046;28;20504;-50
2023/05/26 14:00:22;;;;;;;4.50;1.23;;;;;;;;;;4971453;28;20534;-46
2023/05/26 14:02:50;;;;;;;5.35;1.30;;;;;;;;;;4971907;28;20739;-45
2023/05/26 14:05:22;;;;;;;5.05;1.20;;;;;;;;;;4971110;28;20046;-47
2023/05/26 14:07:50;;;;;;;8.77;1.55;;;;;;;;;;4974836;28;20518;-46
2023/05/26 14:10:17;;;;;;;7.57;1.20;;;;;;;;;;4973669;28;20042;-47
2023/05/26 14:12:46;;;;;;;5.93;1.10;;;;;;;;;;4962814;28;20053;-46
2023/05/26 14:15:14;;;;;;;4.00;1.10;;;;;;;;;;4976905;28;20049;-48
2023/05/26 14:17:42;;;;;;;5.78;1.33;;;;;;;;;;4964688;28;20552;-46
2023/05/26 14:20:17;;;;;;;9.70;1.40;;;;;;;;;;4971999;28;20492;-46
2023/05/26 14:23:06;;;;;;;4.57;1.17;;;;;;;;;;4962136;28;20129;-45
2023/05/26 14:25:35;;;;;;;7.28;1.20;;;;;;;;;;4973963;28;20046;-45
2023/05/26 14:28:04;;;;;;;5.35;1.08;;;;;;;;;;4967905;28;20065;-46
2023/05/26 14:30:32;;;;;;;4.65;1.10;;;;;;;;;;4973268;28;20050;-45
2023/05/26 14:33:03;;;;;;;5.72;1.17;;;;;;;;;;4971950;28;20069;-48
2023/05/26 14:35:31;;;;;;;5.50;1.40;;;;;;;;;;4969606;28;20100;-47
2023/05/26 14:37:59;;;;;;;5.93;1.27;;;;;;;;;;4977067;28;20053;-47
2023/05/26 14:40:29;;;;;;;5.57;1.38;;;;;;;;;;4965468;28;20412;-46
2023/05/26 14:42:57;;;;;;;5.68;1.60;;;;;;;;;;4981857;28;20644;-46
2023/05/26 14:45:25;;;;;;;12.80;1.63;;;;;;;;;;4975603;28;20534;-47
2023/05/26 14:47:54;;;;;;;6.37;1.57;;;;;;;;;;4987546;28;20038;-47
2023/05/26 14:50:21;;;;;;;5.05;1.30;;;;;;;;;;4964398;28;20081;-48